Terminal Aerodrome Forecast
Issued by NWS

Home | Current Version | Previous Version | Text Only | Print | Product List | Glossary On
Versions: 1 2 3 4 5 6 7 8 9 10 11 12
425
FTUS44 KTSA 260520
TAFFYV
TAF
KFYV 260520Z 2606/2706 17012KT P6SM VCTS BKN035CB BKN250
      TEMPO 2607/2610 VRB20G35KT 1SM TSRA SCT015 BKN025CB
     FM261000 VRB11KT 3SM -SHRA VCTS SCT025 BKN035CB
     FM261400 33011G20KT 4SM -SHRA BR BKN008 BKN012
     FM262200 32012KT P6SM VCSH BKN012
     FM270300 30011KT P6SM BKN025=

USA.gov is the U.S. government's official web portal to all federal, state and local government web resources and services.